Weather History for Three Rivers, MI

Change the Weather History Date:

Thursday, May 10, 2012

  Actual Average Record
Temperature  
Mean Temperature 50 °F -  
Max Temperature 63 °F 70 °F 87 °F (1993)
Min Temperature 38 °F 44 °F 26 °F (1966)
Degree Days  
Heating Degree Days 14    
Moisture  
Dew Point 35 °F    
Average Humidity 57    
Maximum Humidity 90    
Minimum Humidity 32    
Precipitation  
Precipitation 0.00 in - - ()
Sea Level Pressure  
Sea Level Pressure 29.97 in    
Wind  
Wind Speed 5 mph (NW)    
Max Wind Speed 13 mph    
Max Gust Speed 21 mph    
Visibility 10 miles    
Events      
Averages and records for this station are not official NWS values.
T = Trace of Precipitation, MM = Missing Value Source: NWS Daily Summary

Daily Weather History Graph

Daily Weather History Graph

Search for Another Location

Airport:

Trip Planner

Search our weather history database for the weather conditions in past years. The results will help you decide how hot, cold, wet, or windy it might be!

Date:

Astronomy

May. 10, 2012 Rise Set
Actual Time 6:26 AM EDT 8:51 PM EDT
Civil Twilight 5:55 AM EDT 9:22 PM EDT
Nautical Twilight 5:16 AM EDT 10:02 PM EDT
Astronomical Twilight 4:33 AM EDT 10:45 PM EDT
Moon 12:49 AM EDT (5/10) 10:50 AM EDT (5/10)
Length of Visible Light 15h 27m
Length of Day
14h 24m
Waning Gibbous, 73% of the Moon is Illuminated
May 10
Waning Gibbous
May 12
Last Quarter
May 20
New
May 28
First Quarter
Jun 4
Full

Hourly Weather History & Observations

Time (EDT) Temp. Windchill Dew Point Humidity Pressure Visibility Wind Dir Wind Speed Gust Speed Precip Events Conditions
12:14 AM 43.9 °F 42.3 °F 36.7 °F 76% 29.91 in 10.0 mi NW 3.5 mph - N/A   Clear
12:35 AM 42.8 °F 41.1 °F 36.3 °F 78% 29.91 in 10.0 mi NW 3.5 mph - N/A   Clear
12:55 AM 44.1 °F 42.5 °F 36.5 °F 75% 29.92 in 10.0 mi NW 3.5 mph - N/A   Clear
1:14 AM 44.1 °F 42.5 °F 36.5 °F 75% 29.92 in 10.0 mi NNW 3.5 mph - N/A   Clear
1:35 AM 43.9 °F - 36.7 °F 76% 29.92 in 10.0 mi Calm Calm - N/A   Clear
1:55 AM 43.7 °F 42.1 °F 36.9 °F 77% 29.92 in 10.0 mi NW 3.5 mph - N/A   Clear
2:14 AM 43.3 °F 41.7 °F 36.5 °F 77% 29.91 in 10.0 mi NNW 3.5 mph - N/A   Clear
2:35 AM 43.3 °F 41.7 °F 36.5 °F 77% 29.91 in 10.0 mi NW 3.5 mph - N/A   Clear
2:54 AM 43.0 °F 41.3 °F 36.1 °F 77% 29.91 in 10.0 mi NW 3.5 mph - N/A   Clear
3:14 AM 43.2 °F 40.5 °F 36.0 °F 76% 29.91 in 10.0 mi NW 4.6 mph - N/A   Clear
3:35 AM 41.7 °F 38.8 °F 35.8 °F 79% 29.91 in 10.0 mi WNW 4.6 mph - N/A   Clear
3:54 AM 41.5 °F 38.6 °F 36.5 °F 82% 29.91 in 10.0 mi WNW 4.6 mph - N/A   Clear
4:15 AM 42.3 °F 40.5 °F 36.9 °F 81% 29.92 in 10.0 mi NW 3.5 mph - N/A   Clear
4:34 AM 42.1 °F 39.2 °F 37.2 °F 83% 29.91 in 10.0 mi NW 4.6 mph - N/A   Clear
4:55 AM 41.5 °F 38.6 °F 37.0 °F 84% 29.91 in 10.0 mi NW 4.6 mph - N/A   Clear
5:15 AM 39.4 °F 37.2 °F 35.6 °F 86% 29.92 in 10.0 mi WNW 3.5 mph - N/A   Clear
5:34 AM 39.2 °F 37.0 °F 36.0 °F 88% 29.92 in 10.0 mi WNW 3.5 mph - N/A   Clear
5:55 AM 38.5 °F 35.0 °F 35.6 °F 89% 29.92 in 10.0 mi West 4.6 mph - N/A   Clear
6:15 AM 39.2 °F - 36.5 °F 90% 29.93 in 10.0 mi Calm Calm - N/A   Clear
6:34 AM 39.2 °F - 36.5 °F 90% 29.93 in 10.0 mi Calm Calm - N/A   Clear
6:55 AM 40.6 °F - 37.4 °F 88% 29.94 in 10.0 mi Calm Calm - N/A   Clear
7:14 AM 41.5 °F 39.6 °F 37.8 °F 86% 29.95 in 10.0 mi NW 3.5 mph - N/A   Clear
7:34 AM 42.8 °F 40.1 °F 38.1 °F 84% 29.95 in 10.0 mi NNW 4.6 mph - N/A   Clear
7:55 AM 44.6 °F 42.2 °F 38.5 °F 79% 29.96 in 10.0 mi NNW 4.6 mph - N/A   Clear
8:14 AM 45.5 °F 44.2 °F 37.8 °F 74% 29.97 in 10.0 mi NW 3.5 mph - N/A   Clear
8:34 AM 47.3 °F - 37.4 °F 68% 29.97 in 10.0 mi WNW 4.6 mph - N/A   Clear
8:55 AM 49.3 °F - 35.6 °F 59% 29.97 in 10.0 mi NNW 6.9 mph - N/A   Clear
9:15 AM 50.5 °F - 34.0 °F 53% 29.98 in 10.0 mi North 4.6 mph - N/A   Clear
9:35 AM 51.8 °F - 31.6 °F 46% 29.98 in 10.0 mi NNW 5.8 mph - N/A   Clear
9:55 AM 52.7 °F - 31.3 °F 44% 29.99 in 10.0 mi North 8.1 mph - N/A   Clear
10:14 AM 53.2 °F - 30.6 °F 42% 29.99 in 10.0 mi NW 9.2 mph - N/A   Clear
10:35 AM 54.5 °F - 32.4 °F 43% 29.99 in 10.0 mi NNW 10.4 mph 17.3 mph N/A   Clear
10:54 AM 54.9 °F - 31.1 °F 40% 29.99 in 10.0 mi NNW 9.2 mph - N/A   Clear
11:15 AM 55.9 °F - 32.4 °F 41% 30.00 in 10.0 mi NNW 9.2 mph - N/A   Clear
11:35 AM 56.7 °F - 32.4 °F 40% 30.00 in 10.0 mi NNW 5.8 mph - N/A   Clear
11:54 AM 57.9 °F - 32.7 °F 39% 30.00 in 10.0 mi NW 8.1 mph 16.1 mph N/A   Clear
12:15 PM 58.3 °F - 32.7 °F 38% 30.00 in 10.0 mi NNW 8.1 mph - N/A   Clear
12:35 PM 59.2 °F - 31.1 °F 35% 29.99 in 10.0 mi NNW 9.2 mph - N/A   Clear
12:54 PM 59.2 °F - 30.7 °F 34% 29.99 in 10.0 mi Calm Calm - N/A   Clear
1:15 PM 60.1 °F - 31.6 °F 34% 29.98 in 10.0 mi NW 5.8 mph - N/A   Clear
1:34 PM 61.0 °F - 34.0 °F 36% 29.98 in 10.0 mi WNW 6.9 mph - N/A   Clear
1:54 PM 61.0 °F - 32.9 °F 35% 29.97 in 10.0 mi NNW 6.9 mph - N/A   Clear
2:15 PM 61.5 °F - 33.6 °F 35% 29.97 in 10.0 mi WNW 8.1 mph - N/A   Clear
2:34 PM 62.1 °F - 32.0 °F 32% 29.97 in 10.0 mi Calm Calm - N/A   Clear
2:55 PM 62.8 °F - 32.2 °F 32% 29.97 in 10.0 mi NW 10.4 mph - N/A   Clear
3:15 PM 63.0 °F - 32.9 °F 32% 29.97 in 10.0 mi NNE 8.1 mph - N/A   Clear
3:34 PM 63.5 °F - 32.9 °F 32% 29.97 in 10.0 mi NW 6.9 mph - N/A   Clear
3:55 PM 63.5 °F - 32.9 °F 32% 29.96 in 10.0 mi NW 11.5 mph - N/A   Clear
4:15 PM 63.9 °F - 36.7 °F 37% 29.97 in 10.0 mi WNW 9.2 mph - N/A   Clear
4:34 PM 63.9 °F - 37.2 °F 37% 29.97 in 10.0 mi WNW 10.4 mph 17.3 mph N/A   Clear
4:55 PM 63.5 °F - 38.1 °F 39% 29.97 in 10.0 mi West 10.4 mph 20.7 mph N/A   Clear
5:15 PM 63.7 °F - 37.8 °F 38% 29.97 in 10.0 mi NW 9.2 mph - N/A   Clear
5:34 PM 63.0 °F - 37.8 °F 39% 29.97 in 10.0 mi NW 8.1 mph - N/A   Clear
5:55 PM 62.6 °F - 37.2 °F 39% 29.98 in 10.0 mi WNW 12.7 mph 16.1 mph N/A   Clear
6:14 PM 62.4 °F - 36.9 °F 39% 29.98 in 10.0 mi WNW 9.2 mph 16.1 mph N/A   Clear
6:35 PM 61.9 °F - 37.6 °F 41% 29.98 in 10.0 mi West 10.4 mph 16.1 mph N/A   Clear
6:55 PM 61.2 °F - 37.0 °F 41% 29.98 in 10.0 mi WNW 8.1 mph - N/A   Clear
7:14 PM 60.8 °F - 35.8 °F 39% 29.98 in 10.0 mi WNW 8.1 mph - N/A   Clear
7:35 PM 59.9 °F - 37.0 °F 43% 29.99 in 10.0 mi WNW 9.2 mph - N/A   Clear
7:55 PM 58.8 °F - 35.8 °F 42% 29.99 in 10.0 mi WNW 8.1 mph - N/A   Clear
8:14 PM 58.5 °F - 35.1 °F 42% 30.00 in 10.0 mi WNW 6.9 mph - N/A   Clear
8:35 PM 56.8 °F - 35.2 °F 44% 30.00 in 10.0 mi NW 6.9 mph - N/A   Clear
8:55 PM 55.8 °F - 34.7 °F 45% 30.01 in 10.0 mi NW 4.6 mph - N/A   Clear
9:14 PM 53.4 °F - 35.8 °F 51% 30.01 in 10.0 mi NW 3.5 mph - N/A   Clear
9:35 PM 50.4 °F - 37.8 °F 62% 30.01 in 10.0 mi Calm Calm - N/A   Clear
9:54 PM 50.2 °F - 36.0 °F 58% 30.02 in 10.0 mi Calm Calm - N/A   Clear
10:14 PM 49.3 °F - 35.6 °F 59% 30.03 in 10.0 mi Calm Calm - N/A   Clear
10:35 PM 50.0 °F - 35.4 °F 57% 30.04 in 10.0 mi Calm Calm - N/A   Clear
10:54 PM 47.8 °F - 35.2 °F 62% 30.04 in 10.0 mi Calm Calm - N/A   Clear
11:15 PM 45.1 °F - 37.0 °F 73% 30.04 in 10.0 mi Calm Calm - N/A   Clear
11:35 PM 46.4 °F - 36.1 °F 67% 30.04 in 10.0 mi Calm Calm - N/A   Clear
11:54 PM 44.6 °F - 36.1 °F 72% 30.04 in 10.0 mi Calm Calm - N/A   Clear